sensor_id;sensor_type;location;lat;lon;timestamp;P1;durP1;ratioP1;P2;durP2;ratioP2
48215;SDS011;34005;48.844;10.098;2023-02-01T00:00:35;8.02;;;4.75;;
48215;SDS011;34005;48.844;10.098;2023-02-01T00:03:02;6.28;;;4.22;;
48215;SDS011;34005;48.844;10.098;2023-02-01T00:05:31;7.85;;;4.70;;
48215;SDS011;34005;48.844;10.098;2023-02-01T00:07:59;4.38;;;3.58;;
48215;SDS011;34005;48.844;10.098;2023-02-01T00:10:28;4.97;;;4.07;;
48215;SDS011;34005;48.844;10.098;2023-02-01T00:12:55;5.53;;;3.90;;
48215;SDS011;34005;48.844;10.098;2023-02-01T00:15:23;4.85;;;3.92;;
48215;SDS011;34005;48.844;10.098;2023-02-01T00:17:52;6.20;;;4.00;;
48215;SDS011;34005;48.844;10.098;2023-02-01T00:20:20;6.53;;;4.45;;
48215;SDS011;34005;48.844;10.098;2023-02-01T00:22:48;5.47;;;3.88;;
48215;SDS011;34005;48.844;10.098;2023-02-01T00:25:16;5.22;;;3.58;;
48215;SDS011;34005;48.844;10.098;2023-02-01T00:27:46;4.35;;;3.47;;
48215;SDS011;34005;48.844;10.098;2023-02-01T00:30:16;5.30;;;3.78;;
48215;SDS011;34005;48.844;10.098;2023-02-01T00:32:45;5.70;;;3.58;;
48215;SDS011;34005;48.844;10.098;2023-02-01T00:35:13;5.40;;;3.30;;
48215;SDS011;34005;48.844;10.098;2023-02-01T00:37:40;4.35;;;3.38;;
48215;SDS011;34005;48.844;10.098;2023-02-01T00:40:08;4.97;;;3.10;;
48215;SDS011;34005;48.844;10.098;2023-02-01T00:42:37;6.50;;;3.67;;
48215;SDS011;34005;48.844;10.098;2023-02-01T00:45:06;3.88;;;3.17;;
48215;SDS011;34005;48.844;10.098;2023-02-01T00:47:34;3.95;;;2.92;;
48215;SDS011;34005;48.844;10.098;2023-02-01T00:50:02;4.70;;;3.22;;
48215;SDS011;34005;48.844;10.098;2023-02-01T00:52:30;4.03;;;3.25;;
48215;SDS011;34005;48.844;10.098;2023-02-01T00:54:58;5.05;;;3.38;;
48215;SDS011;34005;48.844;10.098;2023-02-01T00:57:25;3.80;;;2.97;;
48215;SDS011;34005;48.844;10.098;2023-02-01T00:59:53;3.47;;;2.75;;
48215;SDS011;34005;48.844;10.098;2023-02-01T01:02:21;7.53;;;3.58;;
48215;SDS011;34005;48.844;10.098;2023-02-01T01:04:49;3.95;;;2.90;;
48215;SDS011;34005;48.844;10.098;2023-02-01T01:07:16;3.38;;;2.85;;
48215;SDS011;34005;48.844;10.098;2023-02-01T01:09:44;3.45;;;2.50;;
48215;SDS011;34005;48.844;10.098;2023-02-01T01:12:11;4.50;;;3.78;;
48215;SDS011;34005;48.844;10.098;2023-02-01T01:14:39;3.40;;;3.00;;
48215;SDS011;34005;48.844;10.098;2023-02-01T01:17:07;4.95;;;3.42;;
48215;SDS011;34005;48.844;10.098;2023-02-01T01:19:36;4.53;;;3.50;;
48215;SDS011;34005;48.844;10.098;2023-02-01T01:22:03;2.58;;;2.22;;
48215;SDS011;34005;48.844;10.098;2023-02-01T01:24:31;4.10;;;2.65;;
48215;SDS011;34005;48.844;10.098;2023-02-01T01:26:58;3.65;;;2.90;;
48215;SDS011;34005;48.844;10.098;2023-02-01T01:29:26;3.65;;;2.38;;
48215;SDS011;34005;48.844;10.098;2023-02-01T01:31:53;2.45;;;2.20;;
48215;SDS011;34005;48.844;10.098;2023-02-01T01:34:21;2.08;;;1.90;;
48215;SDS011;34005;48.844;10.098;2023-02-01T01:36:50;3.13;;;2.10;;
48215;SDS011;34005;48.844;10.098;2023-02-01T01:39:18;2.50;;;2.00;;
48215;SDS011;34005;48.844;10.098;2023-02-01T01:41:45;3.47;;;2.40;;
48215;SDS011;34005;48.844;10.098;2023-02-01T01:47:18;2.55;;;2.17;;
48215;SDS011;34005;48.844;10.098;2023-02-01T01:49:45;2.63;;;2.13;;
48215;SDS011;34005;48.844;10.098;2023-02-01T01:52:14;4.85;;;2.55;;
48215;SDS011;34005;48.844;10.098;2023-02-01T01:54:43;3.85;;;2.28;;
48215;SDS011;34005;48.844;10.098;2023-02-01T01:57:14;3.75;;;2.40;;
48215;SDS011;34005;48.844;10.098;2023-02-01T01:59:46;4.00;;;2.63;;
48215;SDS011;34005;48.844;10.098;2023-02-01T02:02:17;2.55;;;1.98;;
48215;SDS011;34005;48.844;10.098;2023-02-01T02:04:45;2.03;;;1.83;;
48215;SDS011;34005;48.844;10.098;2023-02-01T02:07:16;3.50;;;2.35;;
48215;SDS011;34005;48.844;10.098;2023-02-01T02:09:48;2.95;;;2.17;;
48215;SDS011;34005;48.844;10.098;2023-02-01T02:12:26;2.13;;;1.92;;
48215;SDS011;34005;48.844;10.098;2023-02-01T02:14:54;3.03;;;1.90;;
48215;SDS011;34005;48.844;10.098;2023-02-01T02:17:24;2.58;;;1.95;;
48215;SDS011;34005;48.844;10.098;2023-02-01T02:23:15;3.03;;;1.85;;
48215;SDS011;34005;48.844;10.098;2023-02-01T02:26:02;2.45;;;1.75;;
48215;SDS011;34005;48.844;10.098;2023-02-01T02:29:03;3.33;;;2.08;;
48215;SDS011;34005;48.844;10.098;2023-02-01T02:32:12;2.28;;;1.73;;
48215;SDS011;34005;48.844;10.098;2023-02-01T02:34:53;1.83;;;1.50;;
48215;SDS011;34005;48.844;10.098;2023-02-01T02:37:25;1.90;;;1.50;;
48215;SDS011;34005;48.844;10.098;2023-02-01T02:40:05;1.88;;;1.50;;
48215;SDS011;34005;48.844;10.098;2023-02-01T02:42:41;2.08;;;1.75;;
48215;SDS011;34005;48.844;10.098;2023-02-01T02:45:34;2.08;;;1.80;;
48215;SDS011;34005;48.844;10.098;2023-02-01T02:48:25;2.97;;;1.77;;
48215;SDS011;34005;48.844;10.098;2023-02-01T02:50:59;2.63;;;2.13;;
48215;SDS011;34005;48.844;10.098;2023-02-01T02:53:51;1.98;;;1.40;;
48215;SDS011;34005;48.844;10.098;2023-02-01T02:56:41;1.52;;;1.42;;
48215;SDS011;34005;48.844;10.098;2023-02-01T02:59:27;2.20;;;1.90;;
48215;SDS011;34005;48.844;10.098;2023-02-01T03:02:15;3.42;;;2.08;;
48215;SDS011;34005;48.844;10.098;2023-02-01T03:05:03;2.40;;;1.48;;
48215;SDS011;34005;48.844;10.098;2023-02-01T03:07:50;1.70;;;1.50;;
48215;SDS011;34005;48.844;10.098;2023-02-01T03:10:24;1.63;;;1.42;;
48215;SDS011;34005;48.844;10.098;2023-02-01T03:12:59;1.60;;;1.50;;
48215;SDS011;34005;48.844;10.098;2023-02-01T03:15:32;1.75;;;1.40;;
48215;SDS011;34005;48.844;10.098;2023-02-01T03:18:05;1.70;;;1.60;;
48215;SDS011;34005;48.844;10.098;2023-02-01T03:20:37;2.70;;;1.40;;
48215;SDS011;34005;48.844;10.098;2023-02-01T03:23:09;2.15;;;1.42;;
48215;SDS011;34005;48.844;10.098;2023-02-01T03:25:39;1.67;;;1.33;;
48215;SDS011;34005;48.844;10.098;2023-02-01T03:28:08;1.60;;;1.20;;
48215;SDS011;34005;48.844;10.098;2023-02-01T03:30:37;2.88;;;1.42;;
48215;SDS011;34005;48.844;10.098;2023-02-01T03:33:08;2.65;;;1.50;;
48215;SDS011;34005;48.844;10.098;2023-02-01T03:35:49;1.65;;;1.20;;
48215;SDS011;34005;48.844;10.098;2023-02-01T03:38:24;1.42;;;1.30;;
48215;SDS011;34005;48.844;10.098;2023-02-01T03:40:57;1.73;;;1.10;;
48215;SDS011;34005;48.844;10.098;2023-02-01T03:43:32;1.60;;;1.50;;
48215;SDS011;34005;48.844;10.098;2023-02-01T03:46:06;2.47;;;2.00;;
48215;SDS011;34005;48.844;10.098;2023-02-01T03:48:37;2.22;;;1.40;;
48215;SDS011;34005;48.844;10.098;2023-02-01T03:51:06;1.17;;;1.10;;
48215;SDS011;34005;48.844;10.098;2023-02-01T03:53:37;1.42;;;1.10;;
48215;SDS011;34005;48.844;10.098;2023-02-01T03:56:08;1.20;;;1.10;;
48215;SDS011;34005;48.844;10.098;2023-02-01T03:58:37;1.20;;;1.13;;
48215;SDS011;34005;48.844;10.098;2023-02-01T04:01:06;1.35;;;1.20;;
48215;SDS011;34005;48.844;10.098;2023-02-01T04:03:34;1.83;;;1.38;;
48215;SDS011;34005;48.844;10.098;2023-02-01T04:06:01;1.20;;;1.10;;
48215;SDS011;34005;48.844;10.098;2023-02-01T04:08:29;1.98;;;1.42;;
48215;SDS011;34005;48.844;10.098;2023-02-01T04:10:57;2.25;;;1.58;;
48215;SDS011;34005;48.844;10.098;2023-02-01T04:13:25;3.15;;;2.08;;
48215;SDS011;34005;48.844;10.098;2023-02-01T04:15:53;2.65;;;1.67;;
48215;SDS011;34005;48.844;10.098;2023-02-01T04:18:20;1.65;;;1.55;;
48215;SDS011;34005;48.844;10.098;2023-02-01T04:20:48;2.40;;;1.45;;
48215;SDS011;34005;48.844;10.098;2023-02-01T04:23:15;2.67;;;1.30;;
48215;SDS011;34005;48.844;10.098;2023-02-01T04:25:43;1.88;;;1.77;;
48215;SDS011;34005;48.844;10.098;2023-02-01T04:28:12;1.40;;;1.30;;
48215;SDS011;34005;48.844;10.098;2023-02-01T04:30:40;1.65;;;1.38;;
48215;SDS011;34005;48.844;10.098;2023-02-01T04:33:07;1.65;;;1.55;;
48215;SDS011;34005;48.844;10.098;2023-02-01T04:35:35;1.60;;;1.50;;
48215;SDS011;34005;48.844;10.098;2023-02-01T04:38:02;1.60;;;1.50;;
48215;SDS011;34005;48.844;10.098;2023-02-01T04:40:30;1.50;;;1.40;;
48215;SDS011;34005;48.844;10.098;2023-02-01T04:42:57;2.13;;;1.58;;
48215;SDS011;34005;48.844;10.098;2023-02-01T04:45:26;1.65;;;1.42;;
48215;SDS011;34005;48.844;10.098;2023-02-01T04:47:54;2.90;;;1.70;;
48215;SDS011;34005;48.844;10.098;2023-02-01T04:50:21;1.70;;;1.50;;
48215;SDS011;34005;48.844;10.098;2023-02-01T04:52:50;1.58;;;1.48;;
48215;SDS011;34005;48.844;10.098;2023-02-01T04:55:17;2.45;;;2.00;;
48215;SDS011;34005;48.844;10.098;2023-02-01T04:57:45;1.65;;;1.55;;
48215;SDS011;34005;48.844;10.098;2023-02-01T05:00:13;2.17;;;1.60;;
48215;SDS011;34005;48.844;10.098;2023-02-01T05:02:42;1.48;;;1.38;;
48215;SDS011;34005;48.844;10.098;2023-02-01T05:05:10;1.42;;;1.33;;
48215;SDS011;34005;48.844;10.098;2023-02-01T05:07:37;2.25;;;1.58;;
48215;SDS011;34005;48.844;10.098;2023-02-01T05:10:05;2.30;;;1.70;;
48215;SDS011;34005;48.844;10.098;2023-02-01T05:12:34;2.08;;;1.88;;
48215;SDS011;34005;48.844;10.098;2023-02-01T05:15:19;2.00;;;1.80;;
48215;SDS011;34005;48.844;10.098;2023-02-01T05:17:48;2.30;;;1.92;;
48215;SDS011;34005;48.844;10.098;2023-02-01T05:20:15;4.38;;;2.60;;
48215;SDS011;34005;48.844;10.098;2023-02-01T05:22:43;2.70;;;2.40;;
48215;SDS011;34005;48.844;10.098;2023-02-01T05:25:11;3.40;;;2.50;;
48215;SDS011;34005;48.844;10.098;2023-02-01T05:27:38;2.47;;;1.70;;
48215;SDS011;34005;48.844;10.098;2023-02-01T05:30:06;2.00;;;1.80;;
48215;SDS011;34005;48.844;10.098;2023-02-01T05:32:35;4.82;;;1.88;;
48215;SDS011;34005;48.844;10.098;2023-02-01T05:35:05;2.28;;;2.05;;
48215;SDS011;34005;48.844;10.098;2023-02-01T05:37:33;1.90;;;1.70;;
48215;SDS011;34005;48.844;10.098;2023-02-01T05:40:01;2.05;;;1.80;;
48215;SDS011;34005;48.844;10.098;2023-02-01T05:42:28;2.53;;;1.75;;
48215;SDS011;34005;48.844;10.098;2023-02-01T05:44:57;2.00;;;1.60;;
48215;SDS011;34005;48.844;10.098;2023-02-01T05:47:25;2.95;;;2.30;;
48215;SDS011;34005;48.844;10.098;2023-02-01T05:49:53;3.53;;;2.10;;
48215;SDS011;34005;48.844;10.098;2023-02-01T05:52:21;2.10;;;1.80;;
48215;SDS011;34005;48.844;10.098;2023-02-01T05:54:49;2.33;;;1.98;;
48215;SDS011;34005;48.844;10.098;2023-02-01T05:57:19;2.03;;;1.83;;
48215;SDS011;34005;48.844;10.098;2023-02-01T05:59:46;4.22;;;2.25;;
48215;SDS011;34005;48.844;10.098;2023-02-01T06:02:15;2.03;;;1.83;;
48215;SDS011;34005;48.844;10.098;2023-02-01T06:04:42;3.13;;;1.85;;
48215;SDS011;34005;48.844;10.098;2023-02-01T06:07:10;3.80;;;1.90;;
48215;SDS011;34005;48.844;10.098;2023-02-01T06:09:39;1.75;;;1.65;;
48215;SDS011;34005;48.844;10.098;2023-02-01T06:12:07;2.60;;;2.40;;
48215;SDS011;34005;48.844;10.098;2023-02-01T06:14:34;4.45;;;1.75;;
48215;SDS011;34005;48.844;10.098;2023-02-01T06:17:03;3.50;;;1.90;;
48215;SDS011;34005;48.844;10.098;2023-02-01T06:19:31;2.03;;;1.80;;
48215;SDS011;34005;48.844;10.098;2023-02-01T06:21:59;3.75;;;2.05;;
48215;SDS011;34005;48.844;10.098;2023-02-01T06:24:27;2.75;;;2.00;;
48215;SDS011;34005;48.844;10.098;2023-02-01T06:26:56;2.85;;;2.00;;
48215;SDS011;34005;48.844;10.098;2023-02-01T06:29:23;1.92;;;1.60;;
48215;SDS011;34005;48.844;10.098;2023-02-01T06:31:52;2.38;;;1.73;;
48215;SDS011;34005;48.844;10.098;2023-02-01T06:34:20;3.67;;;2.65;;
48215;SDS011;34005;48.844;10.098;2023-02-01T06:36:49;2.47;;;2.10;;
48215;SDS011;34005;48.844;10.098;2023-02-01T06:39:16;2.53;;;1.77;;
48215;SDS011;34005;48.844;10.098;2023-02-01T06:41:45;2.10;;;1.90;;
48215;SDS011;34005;48.844;10.098;2023-02-01T06:44:14;1.90;;;1.60;;
48215;SDS011;34005;48.844;10.098;2023-02-01T06:46:42;4.55;;;2.53;;
48215;SDS011;34005;48.844;10.098;2023-02-01T06:49:10;2.20;;;2.00;;
48215;SDS011;34005;48.844;10.098;2023-02-01T06:51:38;2.78;;;2.38;;
48215;SDS011;34005;48.844;10.098;2023-02-01T06:54:05;2.88;;;1.77;;
48215;SDS011;34005;48.844;10.098;2023-02-01T06:56:33;2.05;;;1.67;;
48215;SDS011;34005;48.844;10.098;2023-02-01T06:59:02;2.72;;;1.73;;
48215;SDS011;34005;48.844;10.098;2023-02-01T07:01:32;2.28;;;1.92;;
48215;SDS011;34005;48.844;10.098;2023-02-01T07:03:59;3.75;;;1.65;;
48215;SDS011;34005;48.844;10.098;2023-02-01T07:06:27;3.05;;;2.25;;
48215;SDS011;34005;48.844;10.098;2023-02-01T07:08:55;2.90;;;1.70;;
48215;SDS011;34005;48.844;10.098;2023-02-01T07:11:24;2.83;;;1.90;;
48215;SDS011;34005;48.844;10.098;2023-02-01T07:13:53;2.65;;;1.98;;
48215;SDS011;34005;48.844;10.098;2023-02-01T07:16:21;2.47;;;1.83;;
48215;SDS011;34005;48.844;10.098;2023-02-01T07:18:51;3.97;;;1.85;;
48215;SDS011;34005;48.844;10.098;2023-02-01T07:21:19;2.22;;;1.90;;
48215;SDS011;34005;48.844;10.098;2023-02-01T07:23:47;3.05;;;2.17;;
48215;SDS011;34005;48.844;10.098;2023-02-01T07:26:15;4.57;;;2.50;;
48215;SDS011;34005;48.844;10.098;2023-02-01T07:28:43;3.17;;;2.35;;
48215;SDS011;34005;48.844;10.098;2023-02-01T07:31:11;5.65;;;3.15;;
48215;SDS011;34005;48.844;10.098;2023-02-01T07:33:41;3.42;;;2.30;;
48215;SDS011;34005;48.844;10.098;2023-02-01T07:36:11;2.88;;;2.30;;
48215;SDS011;34005;48.844;10.098;2023-02-01T07:38:40;3.95;;;2.10;;
48215;SDS011;34005;48.844;10.098;2023-02-01T07:41:08;2.78;;;2.40;;
48215;SDS011;34005;48.844;10.098;2023-02-01T07:43:36;2.03;;;1.83;;
48215;SDS011;34005;48.844;10.098;2023-02-01T07:46:04;3.72;;;2.58;;
48215;SDS011;34005;48.844;10.098;2023-02-01T07:48:33;5.57;;;2.78;;
48215;SDS011;34005;48.844;10.098;2023-02-01T07:51:01;5.18;;;3.00;;
48215;SDS011;34005;48.844;10.098;2023-02-01T07:53:32;4.68;;;2.53;;
48215;SDS011;34005;48.844;10.098;2023-02-01T07:56:00;3.42;;;2.67;;
48215;SDS011;34005;48.844;10.098;2023-02-01T07:58:29;4.50;;;3.15;;
48215;SDS011;34005;48.844;10.098;2023-02-01T08:00:56;3.63;;;2.50;;
48215;SDS011;34005;48.844;10.098;2023-02-01T08:03:42;4.95;;;2.90;;
48215;SDS011;34005;48.844;10.098;2023-02-01T08:06:09;2.55;;;2.30;;
48215;SDS011;34005;48.844;10.098;2023-02-01T08:08:38;6.30;;;2.55;;
48215;SDS011;34005;48.844;10.098;2023-02-01T08:11:06;4.38;;;2.45;;
48215;SDS011;34005;48.844;10.098;2023-02-01T08:13:34;2.25;;;2.05;;
48215;SDS011;34005;48.844;10.098;2023-02-01T08:16:03;3.92;;;2.67;;
48215;SDS011;34005;48.844;10.098;2023-02-01T08:18:32;3.95;;;2.20;;
48215;SDS011;34005;48.844;10.098;2023-02-01T08:21:02;3.97;;;2.30;;
48215;SDS011;34005;48.844;10.098;2023-02-01T08:23:31;3.28;;;2.90;;
48215;SDS011;34005;48.844;10.098;2023-02-01T08:26:07;3.83;;;2.72;;
48215;SDS011;34005;48.844;10.098;2023-02-01T08:28:36;3.15;;;2.53;;
48215;SDS011;34005;48.844;10.098;2023-02-01T08:31:05;3.63;;;2.75;;
48215;SDS011;34005;48.844;10.098;2023-02-01T08:33:34;5.20;;;2.80;;
48215;SDS011;34005;48.844;10.098;2023-02-01T08:36:03;2.85;;;2.22;;
48215;SDS011;34005;48.844;10.098;2023-02-01T08:38:32;2.35;;;2.15;;
48215;SDS011;34005;48.844;10.098;2023-02-01T08:41:03;3.80;;;2.17;;
48215;SDS011;34005;48.844;10.098;2023-02-01T08:43:33;2.92;;;2.03;;
48215;SDS011;34005;48.844;10.098;2023-02-01T08:46:01;4.10;;;2.20;;
48215;SDS011;34005;48.844;10.098;2023-02-01T08:48:29;3.17;;;2.40;;
48215;SDS011;34005;48.844;10.098;2023-02-01T08:50:56;2.58;;;1.98;;
48215;SDS011;34005;48.844;10.098;2023-02-01T08:53:24;4.15;;;2.30;;
48215;SDS011;34005;48.844;10.098;2023-02-01T08:55:52;4.63;;;2.53;;
48215;SDS011;34005;48.844;10.098;2023-02-01T08:58:19;2.47;;;2.28;;
48215;SDS011;34005;48.844;10.098;2023-02-01T09:00:49;3.72;;;2.65;;
48215;SDS011;34005;48.844;10.098;2023-02-01T09:03:17;3.03;;;2.53;;
48215;SDS011;34005;48.844;10.098;2023-02-01T09:05:44;4.03;;;3.47;;
48215;SDS011;34005;48.844;10.098;2023-02-01T09:08:15;6.25;;;4.65;;
48215;SDS011;34005;48.844;10.098;2023-02-01T09:10:45;7.07;;;4.70;;
48215;SDS011;34005;48.844;10.098;2023-02-01T09:13:12;8.55;;;4.15;;
48215;SDS011;34005;48.844;10.098;2023-02-01T09:15:40;6.28;;;4.20;;
48215;SDS011;34005;48.844;10.098;2023-02-01T09:18:09;8.75;;;4.60;;
48215;SDS011;34005;48.844;10.098;2023-02-01T09:20:37;8.35;;;5.00;;
48215;SDS011;34005;48.844;10.098;2023-02-01T09:23:04;4.80;;;3.67;;
48215;SDS011;34005;48.844;10.098;2023-02-01T09:25:33;7.28;;;3.33;;
48215;SDS011;34005;48.844;10.098;2023-02-01T09:28:01;5.72;;;2.47;;
48215;SDS011;34005;48.844;10.098;2023-02-01T09:30:30;3.67;;;2.90;;
48215;SDS011;34005;48.844;10.098;2023-02-01T09:32:57;5.55;;;2.72;;
48215;SDS011;34005;48.844;10.098;2023-02-01T09:35:26;3.10;;;2.50;;
48215;SDS011;34005;48.844;10.098;2023-02-01T09:37:54;5.10;;;2.50;;
48215;SDS011;34005;48.844;10.098;2023-02-01T09:40:21;3.72;;;2.60;;
48215;SDS011;34005;48.844;10.098;2023-02-01T09:43:00;8.10;;;2.97;;
48215;SDS011;34005;48.844;10.098;2023-02-01T09:45:40;2.85;;;2.28;;
48215;SDS011;34005;48.844;10.098;2023-02-01T09:48:13;4.25;;;2.15;;
48215;SDS011;34005;48.844;10.098;2023-02-01T09:50:47;5.35;;;3.00;;
48215;SDS011;34005;48.844;10.098;2023-02-01T09:55:49;3.35;;;2.20;;
48215;SDS011;34005;48.844;10.098;2023-02-01T09:58:19;4.80;;;2.10;;
48215;SDS011;34005;48.844;10.098;2023-02-01T10:00:50;3.95;;;2.45;;
48215;SDS011;34005;48.844;10.098;2023-02-01T10:03:19;6.38;;;2.33;;
48215;SDS011;34005;48.844;10.098;2023-02-01T10:05:54;4.38;;;2.40;;
48215;SDS011;34005;48.844;10.098;2023-02-01T10:08:48;3.90;;;2.10;;
48215;SDS011;34005;48.844;10.098;2023-02-01T10:11:32;2.67;;;2.13;;
48215;SDS011;34005;48.844;10.098;2023-02-01T10:14:29;5.32;;;2.85;;
48215;SDS011;34005;48.844;10.098;2023-02-01T10:17:12;6.13;;;2.65;;
48215;SDS011;34005;48.844;10.098;2023-02-01T10:19:51;5.68;;;2.72;;
48215;SDS011;34005;48.844;10.098;2023-02-01T10:22:29;4.47;;;2.42;;
48215;SDS011;34005;48.844;10.098;2023-02-01T10:25:26;3.88;;;2.17;;
48215;SDS011;34005;48.844;10.098;2023-02-01T10:27:59;6.70;;;3.10;;
48215;SDS011;34005;48.844;10.098;2023-02-01T10:30:29;6.07;;;2.70;;
48215;SDS011;34005;48.844;10.098;2023-02-01T10:33:16;3.45;;;2.03;;
48215;SDS011;34005;48.844;10.098;2023-02-01T10:35:54;5.20;;;2.80;;
48215;SDS011;34005;48.844;10.098;2023-02-01T10:38:32;5.57;;;2.97;;
48215;SDS011;34005;48.844;10.098;2023-02-01T10:41:01;3.88;;;2.60;;
48215;SDS011;34005;48.844;10.098;2023-02-01T10:43:30;4.50;;;3.13;;
48215;SDS011;34005;48.844;10.098;2023-02-01T10:46:00;3.72;;;2.10;;
48215;SDS011;34005;48.844;10.098;2023-02-01T10:48:27;6.57;;;2.42;;
48215;SDS011;34005;48.844;10.098;2023-02-01T10:50:57;3.10;;;2.10;;
48215;SDS011;34005;48.844;10.098;2023-02-01T10:53:29;4.95;;;2.72;;
48215;SDS011;34005;48.844;10.098;2023-02-01T10:56:05;3.42;;;2.13;;
48215;SDS011;34005;48.844;10.098;2023-02-01T10:58:33;6.13;;;2.70;;
48215;SDS011;34005;48.844;10.098;2023-02-01T11:01:04;4.25;;;1.98;;
48215;SDS011;34005;48.844;10.098;2023-02-01T11:03:38;5.20;;;3.38;;
48215;SDS011;34005;48.844;10.098;2023-02-01T11:06:11;4.22;;;2.35;;
48215;SDS011;34005;48.844;10.098;2023-02-01T11:08:47;5.90;;;2.40;;
48215;SDS011;34005;48.844;10.098;2023-02-01T11:11:17;2.83;;;2.10;;
48215;SDS011;34005;48.844;10.098;2023-02-01T11:13:50;4.03;;;2.00;;
48215;SDS011;34005;48.844;10.098;2023-02-01T11:16:20;3.88;;;2.30;;
48215;SDS011;34005;48.844;10.098;2023-02-01T11:18:52;6.82;;;3.22;;
48215;SDS011;34005;48.844;10.098;2023-02-01T11:21:21;6.80;;;2.75;;
48215;SDS011;34005;48.844;10.098;2023-02-01T11:23:50;6.82;;;2.90;;
48215;SDS011;34005;48.844;10.098;2023-02-01T11:26:20;6.25;;;2.88;;
48215;SDS011;34005;48.844;10.098;2023-02-01T11:28:51;4.50;;;2.97;;
48215;SDS011;34005;48.844;10.098;2023-02-01T11:31:24;4.97;;;2.50;;
48215;SDS011;34005;48.844;10.098;2023-02-01T11:33:54;7.05;;;3.03;;
48215;SDS011;34005;48.844;10.098;2023-02-01T11:36:26;10.38;;;3.33;;
48215;SDS011;34005;48.844;10.098;2023-02-01T11:39:09;8.20;;;3.58;;
48215;SDS011;34005;48.844;10.098;2023-02-01T11:41:54;5.13;;;3.00;;
48215;SDS011;34005;48.844;10.098;2023-02-01T11:44:28;8.77;;;3.60;;
48215;SDS011;34005;48.844;10.098;2023-02-01T11:47:16;8.95;;;3.47;;
48215;SDS011;34005;48.844;10.098;2023-02-01T11:49:46;7.85;;;3.78;;
48215;SDS011;34005;48.844;10.098;2023-02-01T11:52:16;6.72;;;2.90;;
48215;SDS011;34005;48.844;10.098;2023-02-01T11:54:59;7.00;;;2.90;;
48215;SDS011;34005;48.844;10.098;2023-02-01T11:57:41;7.95;;;2.80;;
48215;SDS011;34005;48.844;10.098;2023-02-01T12:00:32;6.15;;;2.95;;
48215;SDS011;34005;48.844;10.098;2023-02-01T12:03:24;6.15;;;2.20;;
48215;SDS011;34005;48.844;10.098;2023-02-01T12:06:08;4.20;;;2.50;;
48215;SDS011;34005;48.844;10.098;2023-02-01T12:08:48;4.95;;;2.45;;
48215;SDS011;34005;48.844;10.098;2023-02-01T12:11:40;5.45;;;2.45;;
48215;SDS011;34005;48.844;10.098;2023-02-01T12:14:20;5.75;;;2.38;;
48215;SDS011;34005;48.844;10.098;2023-02-01T12:17:01;9.15;;;3.15;;
48215;SDS011;34005;48.844;10.098;2023-02-01T12:19:47;5.05;;;2.60;;
48215;SDS011;34005;48.844;10.098;2023-02-01T12:22:29;5.25;;;2.40;;
48215;SDS011;34005;48.844;10.098;2023-02-01T12:25:21;7.65;;;2.88;;
48215;SDS011;34005;48.844;10.098;2023-02-01T12:30:54;7.40;;;2.30;;
48215;SDS011;34005;48.844;10.098;2023-02-01T12:33:42;5.75;;;2.10;;
48215;SDS011;34005;48.844;10.098;2023-02-01T12:36:25;11.68;;;3.00;;
48215;SDS011;34005;48.844;10.098;2023-02-01T12:39:05;8.13;;;2.90;;
48215;SDS011;34005;48.844;10.098;2023-02-01T12:41:47;8.25;;;3.13;;
48215;SDS011;34005;48.844;10.098;2023-02-01T12:44:28;6.47;;;2.70;;
48215;SDS011;34005;48.844;10.098;2023-02-01T12:47:04;10.70;;;2.83;;
48215;SDS011;34005;48.844;10.098;2023-02-01T12:49:38;9.35;;;2.75;;
48215;SDS011;34005;48.844;10.098;2023-02-01T12:52:14;8.40;;;2.80;;
48215;SDS011;34005;48.844;10.098;2023-02-01T12:54:46;4.97;;;2.15;;
48215;SDS011;34005;48.844;10.098;2023-02-01T12:57:18;9.35;;;2.67;;
48215;SDS011;34005;48.844;10.098;2023-02-01T12:59:56;13.27;;;2.88;;
48215;SDS011;34005;48.844;10.098;2023-02-01T13:02:30;6.13;;;2.35;;
48215;SDS011;34005;48.844;10.098;2023-02-01T13:05:13;7.28;;;2.67;;
48215;SDS011;34005;48.844;10.098;2023-02-01T13:07:45;6.70;;;2.72;;
48215;SDS011;34005;48.844;10.098;2023-02-01T13:10:21;8.57;;;3.55;;
48215;SDS011;34005;48.844;10.098;2023-02-01T13:12:56;4.57;;;2.85;;
48215;SDS011;34005;48.844;10.098;2023-02-01T13:15:31;11.20;;;2.72;;
48215;SDS011;34005;48.844;10.098;2023-02-01T13:18:04;6.10;;;2.40;;
48215;SDS011;34005;48.844;10.098;2023-02-01T13:20:34;7.05;;;2.20;;
48215;SDS011;34005;48.844;10.098;2023-02-01T13:23:10;5.90;;;2.60;;
48215;SDS011;34005;48.844;10.098;2023-02-01T13:25:46;11.23;;;3.47;;
48215;SDS011;34005;48.844;10.098;2023-02-01T13:28:16;8.60;;;3.17;;
48215;SDS011;34005;48.844;10.098;2023-02-01T13:30:53;10.63;;;2.92;;
48215;SDS011;34005;48.844;10.098;2023-02-01T13:33:38;11.50;;;3.28;;
48215;SDS011;34005;48.844;10.098;2023-02-01T13:36:34;13.50;;;3.42;;
48215;SDS011;34005;48.844;10.098;2023-02-01T13:42:13;6.97;;;2.63;;
48215;SDS011;34005;48.844;10.098;2023-02-01T13:44:44;9.32;;;2.50;;
48215;SDS011;34005;48.844;10.098;2023-02-01T13:47:18;10.35;;;2.35;;
48215;SDS011;34005;48.844;10.098;2023-02-01T13:49:51;5.32;;;2.50;;
48215;SDS011;34005;48.844;10.098;2023-02-01T13:52:25;10.70;;;2.92;;
48215;SDS011;34005;48.844;10.098;2023-02-01T13:55:03;6.53;;;2.25;;
48215;SDS011;34005;48.844;10.098;2023-02-01T13:57:42;8.35;;;2.72;;
48215;SDS011;34005;48.844;10.098;2023-02-01T14:00:23;10.38;;;2.28;;
48215;SDS011;34005;48.844;10.098;2023-02-01T14:03:06;7.35;;;2.30;;
48215;SDS011;34005;48.844;10.098;2023-02-01T14:05:57;7.30;;;2.33;;
48215;SDS011;34005;48.844;10.098;2023-02-01T14:08:41;7.97;;;1.83;;
48215;SDS011;34005;48.844;10.098;2023-02-01T14:20:38;11.95;;;2.88;;
48215;SDS011;34005;48.844;10.098;2023-02-01T14:23:11;5.70;;;1.73;;
48215;SDS011;34005;48.844;10.098;2023-02-01T14:25:43;6.03;;;2.10;;
48215;SDS011;34005;48.844;10.098;2023-02-01T14:28:19;11.27;;;2.58;;
48215;SDS011;34005;48.844;10.098;2023-02-01T14:30:52;8.18;;;2.50;;
48215;SDS011;34005;48.844;10.098;2023-02-01T14:33:22;6.18;;;2.20;;
48215;SDS011;34005;48.844;10.098;2023-02-01T14:36:00;6.75;;;2.10;;
48215;SDS011;34005;48.844;10.098;2023-02-01T14:38:31;10.90;;;2.38;;
48215;SDS011;34005;48.844;10.098;2023-02-01T14:41:11;5.97;;;1.90;;
48215;SDS011;34005;48.844;10.098;2023-02-01T14:43:51;5.60;;;1.98;;
48215;SDS011;34005;48.844;10.098;2023-02-01T14:47:03;9.27;;;2.30;;
48215;SDS011;34005;48.844;10.098;2023-02-01T14:49:37;5.90;;;2.05;;
48215;SDS011;34005;48.844;10.098;2023-02-01T14:52:11;9.15;;;2.38;;
48215;SDS011;34005;48.844;10.098;2023-02-01T14:54:42;10.65;;;2.70;;
48215;SDS011;34005;48.844;10.098;2023-02-01T14:57:15;11.48;;;2.47;;
48215;SDS011;34005;48.844;10.098;2023-02-01T14:59:47;6.45;;;2.17;;
48215;SDS011;34005;48.844;10.098;2023-02-01T15:02:18;8.18;;;2.42;;
48215;SDS011;34005;48.844;10.098;2023-02-01T15:04:53;6.95;;;2.10;;
48215;SDS011;34005;48.844;10.098;2023-02-01T15:07:22;7.15;;;2.00;;
48215;SDS011;34005;48.844;10.098;2023-02-01T15:09:53;4.63;;;2.30;;
48215;SDS011;34005;48.844;10.098;2023-02-01T15:12:25;7.07;;;3.17;;
48215;SDS011;34005;48.844;10.098;2023-02-01T15:15:11;8.10;;;2.13;;
48215;SDS011;34005;48.844;10.098;2023-02-01T15:17:41;10.38;;;2.85;;
48215;SDS011;34005;48.844;10.098;2023-02-01T15:20:12;7.47;;;2.50;;
48215;SDS011;34005;48.844;10.098;2023-02-01T15:22:51;10.27;;;2.42;;
48215;SDS011;34005;48.844;10.098;2023-02-01T15:25:21;8.52;;;2.45;;
48215;SDS011;34005;48.844;10.098;2023-02-01T15:27:51;5.85;;;2.17;;